sensor_id;sensor_type;location;lat;lon;timestamp;P1;durP1;ratioP1;P2;durP2;ratioP2
46377;SDS011;32083;47.360;9.650;2022-07-05T04:01:19;5.20;;;3.00;;
46377;SDS011;32083;47.360;9.650;2022-07-05T04:03:46;5.00;;;2.85;;
46377;SDS011;32083;47.360;9.650;2022-07-05T04:06:12;5.35;;;3.05;;
46377;SDS011;32083;47.360;9.650;2022-07-05T04:08:38;4.17;;;3.13;;
46377;SDS011;32083;47.360;9.650;2022-07-05T04:11:04;3.08;;;2.50;;
46377;SDS011;32083;47.360;9.650;2022-07-05T04:13:31;3.90;;;3.10;;
46377;SDS011;32083;47.360;9.650;2022-07-05T04:15:56;4.10;;;3.03;;
46377;SDS011;32083;47.360;9.650;2022-07-05T04:18:23;3.90;;;2.90;;
46377;SDS011;32083;47.360;9.650;2022-07-05T04:20:49;4.97;;;2.83;;
46377;SDS011;32083;47.360;9.650;2022-07-05T04:23:15;4.10;;;2.80;;
46377;SDS011;32083;47.360;9.650;2022-07-05T05:05:12;9.18;;;3.70;;
46377;SDS011;32083;47.360;9.650;2022-07-05T05:07:42;8.55;;;4.00;;
46377;SDS011;32083;47.360;9.650;2022-07-05T05:10:09;12.98;;;5.88;;
46377;SDS011;32083;47.360;9.650;2022-07-05T05:12:35;13.80;;;5.35;;
46377;SDS011;32083;47.360;9.650;2022-07-05T05:15:01;10.23;;;4.97;;
46377;SDS011;32083;47.360;9.650;2022-07-05T05:17:35;8.73;;;4.28;;
46377;SDS011;32083;47.360;9.650;2022-07-05T05:20:01;9.15;;;4.45;;
46377;SDS011;32083;47.360;9.650;2022-07-05T05:22:29;5.13;;;3.13;;
46377;SDS011;32083;47.360;9.650;2022-07-05T05:24:55;5.43;;;3.45;;
46377;SDS011;32083;47.360;9.650;2022-07-05T05:27:21;6.10;;;4.10;;
46377;SDS011;32083;47.360;9.650;2022-07-05T05:29:47;4.50;;;2.95;;
46377;SDS011;32083;47.360;9.650;2022-07-05T05:32:13;4.85;;;3.45;;
46377;SDS011;32083;47.360;9.650;2022-07-05T05:34:39;4.77;;;3.80;;
46377;SDS011;32083;47.360;9.650;2022-07-05T05:37:05;5.53;;;3.00;;
46377;SDS011;32083;47.360;9.650;2022-07-05T05:39:31;5.03;;;3.10;;
46377;SDS011;32083;47.360;9.650;2022-07-05T05:41:57;7.77;;;2.97;;
46377;SDS011;32083;47.360;9.650;2022-07-05T05:44:23;4.97;;;3.00;;
46377;SDS011;32083;47.360;9.650;2022-07-05T05:46:49;4.03;;;2.55;;
46377;SDS011;32083;47.360;9.650;2022-07-05T05:49:15;4.70;;;2.90;;
46377;SDS011;32083;47.360;9.650;2022-07-05T05:51:41;3.75;;;2.65;;
46377;SDS011;32083;47.360;9.650;2022-07-05T05:54:07;6.38;;;3.63;;
46377;SDS011;32083;47.360;9.650;2022-07-05T05:56:33;6.13;;;3.60;;
46377;SDS011;32083;47.360;9.650;2022-07-05T05:58:58;5.85;;;4.47;;
46377;SDS011;32083;47.360;9.650;2022-07-05T06:01:24;6.55;;;3.80;;
46377;SDS011;32083;47.360;9.650;2022-07-05T06:03:50;5.93;;;4.03;;
46377;SDS011;32083;47.360;9.650;2022-07-05T06:06:16;5.65;;;4.35;;
46377;SDS011;32083;47.360;9.650;2022-07-05T06:08:42;5.15;;;3.20;;
46377;SDS011;32083;47.360;9.650;2022-07-05T06:11:08;4.50;;;3.83;;
46377;SDS011;32083;47.360;9.650;2022-07-05T06:13:34;4.75;;;3.15;;
46377;SDS011;32083;47.360;9.650;2022-07-05T06:16:00;5.03;;;3.53;;
46377;SDS011;32083;47.360;9.650;2022-07-05T06:18:26;5.73;;;3.90;;
46377;SDS011;32083;47.360;9.650;2022-07-05T06:20:52;7.28;;;3.80;;
46377;SDS011;32083;47.360;9.650;2022-07-05T06:23:17;5.05;;;4.03;;
46377;SDS011;32083;47.360;9.650;2022-07-05T06:25:43;5.90;;;4.23;;
46377;SDS011;32083;47.360;9.650;2022-07-05T06:28:09;5.93;;;4.45;;
46377;SDS011;32083;47.360;9.650;2022-07-05T06:30:36;7.22;;;5.10;;
46377;SDS011;32083;47.360;9.650;2022-07-05T06:33:03;9.90;;;5.30;;
46377;SDS011;32083;47.360;9.650;2022-07-05T06:35:29;5.03;;;4.35;;
46377;SDS011;32083;47.360;9.650;2022-07-05T06:38:03;6.57;;;4.40;;
46377;SDS011;32083;47.360;9.650;2022-07-05T06:40:34;5.90;;;4.57;;
46377;SDS011;32083;47.360;9.650;2022-07-05T06:43:04;6.47;;;4.80;;
46377;SDS011;32083;47.360;9.650;2022-07-05T06:45:31;7.90;;;5.05;;
46377;SDS011;32083;47.360;9.650;2022-07-05T06:47:58;5.50;;;4.37;;
46377;SDS011;32083;47.360;9.650;2022-07-05T06:50:33;5.90;;;4.88;;
46377;SDS011;32083;47.360;9.650;2022-07-05T06:53:03;6.03;;;3.88;;
46377;SDS011;32083;47.360;9.650;2022-07-05T06:55:30;5.32;;;4.70;;
46377;SDS011;32083;47.360;9.650;2022-07-05T06:58:00;5.15;;;4.22;;
46377;SDS011;32083;47.360;9.650;2022-07-05T07:00:31;5.32;;;4.43;;
46377;SDS011;32083;47.360;9.650;2022-07-05T07:02:57;4.95;;;4.45;;
46377;SDS011;32083;47.360;9.650;2022-07-05T07:05:24;6.75;;;4.93;;
46377;SDS011;32083;47.360;9.650;2022-07-05T07:07:50;4.88;;;4.38;;
46377;SDS011;32083;47.360;9.650;2022-07-05T07:10:34;5.07;;;4.20;;
46377;SDS011;32083;47.360;9.650;2022-07-05T07:13:01;5.30;;;4.13;;
46377;SDS011;32083;47.360;9.650;2022-07-05T07:15:27;5.18;;;3.80;;
46377;SDS011;32083;47.360;9.650;2022-07-05T07:17:54;4.32;;;3.65;;
46377;SDS011;32083;47.360;9.650;2022-07-05T07:20:21;4.10;;;3.65;;
46377;SDS011;32083;47.360;9.650;2022-07-05T07:22:47;4.50;;;3.87;;
46377;SDS011;32083;47.360;9.650;2022-07-05T07:25:13;6.20;;;3.70;;
46377;SDS011;32083;47.360;9.650;2022-07-05T07:27:49;4.35;;;3.88;;
46377;SDS011;32083;47.360;9.650;2022-07-05T07:30:17;4.45;;;3.85;;
46377;SDS011;32083;47.360;9.650;2022-07-05T07:32:45;5.25;;;4.03;;
46377;SDS011;32083;47.360;9.650;2022-07-05T07:35:11;5.53;;;4.07;;
46377;SDS011;32083;47.360;9.650;2022-07-05T07:37:38;7.38;;;4.40;;
46377;SDS011;32083;47.360;9.650;2022-07-05T07:40:06;6.03;;;4.30;;
46377;SDS011;32083;47.360;9.650;2022-07-05T07:42:32;5.32;;;3.70;;
46377;SDS011;32083;47.360;9.650;2022-07-05T07:44:59;4.55;;;3.55;;
46377;SDS011;32083;47.360;9.650;2022-07-05T07:47:32;3.10;;;2.80;;
46377;SDS011;32083;47.360;9.650;2022-07-05T07:49:59;4.20;;;3.00;;
46377;SDS011;32083;47.360;9.650;2022-07-05T07:52:27;3.20;;;2.67;;
46377;SDS011;32083;47.360;9.650;2022-07-05T07:54:56;4.20;;;2.97;;
46377;SDS011;32083;47.360;9.650;2022-07-05T07:57:22;5.55;;;2.72;;
46377;SDS011;32083;47.360;9.650;2022-07-05T07:59:48;4.65;;;2.80;;
46377;SDS011;32083;47.360;9.650;2022-07-05T08:02:14;2.72;;;2.42;;
46377;SDS011;32083;47.360;9.650;2022-07-05T08:04:42;4.90;;;3.72;;
46377;SDS011;32083;47.360;9.650;2022-07-05T08:07:08;3.70;;;3.00;;
46377;SDS011;32083;47.360;9.650;2022-07-05T08:09:34;4.15;;;2.70;;
46377;SDS011;32083;47.360;9.650;2022-07-05T08:12:00;4.55;;;2.80;;
46377;SDS011;32083;47.360;9.650;2022-07-05T08:14:27;3.10;;;2.30;;
46377;SDS011;32083;47.360;9.650;2022-07-05T08:16:53;2.37;;;1.93;;
46377;SDS011;32083;47.360;9.650;2022-07-05T08:19:20;2.55;;;2.13;;
46377;SDS011;32083;47.360;9.650;2022-07-05T08:22:04;5.35;;;2.15;;
46377;SDS011;32083;47.360;9.650;2022-07-05T08:24:32;3.08;;;2.30;;
46377;SDS011;32083;47.360;9.650;2022-07-05T08:26:59;4.97;;;2.28;;
46377;SDS011;32083;47.360;9.650;2022-07-05T08:29:25;3.72;;;2.92;;
46377;SDS011;32083;47.360;9.650;2022-07-05T08:31:53;3.83;;;2.65;;
46377;SDS011;32083;47.360;9.650;2022-07-05T08:34:22;2.88;;;2.30;;
46377;SDS011;32083;47.360;9.650;2022-07-05T08:36:48;4.43;;;2.42;;
46377;SDS011;32083;47.360;9.650;2022-07-05T08:39:14;10.52;;;3.10;;
46377;SDS011;32083;47.360;9.650;2022-07-05T08:41:41;4.43;;;2.50;;
46377;SDS011;32083;47.360;9.650;2022-07-05T08:44:14;3.65;;;2.35;;
46377;SDS011;32083;47.360;9.650;2022-07-05T08:46:46;3.33;;;2.33;;
46377;SDS011;32083;47.360;9.650;2022-07-05T08:49:20;2.88;;;2.60;;
46377;SDS011;32083;47.360;9.650;2022-07-05T08:52:07;3.60;;;2.72;;
46377;SDS011;32083;47.360;9.650;2022-07-05T08:54:36;3.97;;;3.17;;
46377;SDS011;32083;47.360;9.650;2022-07-05T08:57:18;4.53;;;2.90;;
46377;SDS011;32083;47.360;9.650;2022-07-05T08:59:44;4.13;;;2.88;;
46377;SDS011;32083;47.360;9.650;2022-07-05T09:12:58;5.30;;;2.90;;
46377;SDS011;32083;47.360;9.650;2022-07-05T09:16:28;3.40;;;2.67;;
46377;SDS011;32083;47.360;9.650;2022-07-05T10:29:27;3.55;;;2.83;;
46377;SDS011;32083;47.360;9.650;2022-07-05T10:34:54;3.60;;;2.60;;
46377;SDS011;32083;47.360;9.650;2022-07-05T10:37:28;3.70;;;2.40;;
46377;SDS011;32083;47.360;9.650;2022-07-05T10:43:15;5.97;;;2.60;;
46377;SDS011;32083;47.360;9.650;2022-07-05T10:45:56;3.20;;;2.80;;
46377;SDS011;32083;47.360;9.650;2022-07-05T10:48:32;4.97;;;3.38;;
46377;SDS011;32083;47.360;9.650;2022-07-05T10:51:01;3.90;;;3.03;;
46377;SDS011;32083;47.360;9.650;2022-07-05T11:03:52;3.08;;;2.60;;
46377;SDS011;32083;47.360;9.650;2022-07-05T11:11:47;4.70;;;3.10;;
46377;SDS011;32083;47.360;9.650;2022-07-05T11:17:11;3.20;;;2.72;;
46377;SDS011;32083;47.360;9.650;2022-07-05T11:20:09;3.83;;;2.65;;
46377;SDS011;32083;47.360;9.650;2022-07-05T11:23:27;4.22;;;2.55;;
46377;SDS011;32083;47.360;9.650;2022-07-05T11:25:32;3.05;;;2.03;;
46377;SDS011;32083;47.360;9.650;2022-07-05T11:28:11;2.90;;;2.38;;
46377;SDS011;32083;47.360;9.650;2022-07-05T11:36:22;3.30;;;2.10;;
46377;SDS011;32083;47.360;9.650;2022-07-05T11:41:37;3.70;;;2.70;;
46377;SDS011;32083;47.360;9.650;2022-07-05T11:44:04;3.40;;;2.40;;
46377;SDS011;32083;47.360;9.650;2022-07-05T11:46:33;3.08;;;2.03;;
46377;SDS011;32083;47.360;9.650;2022-07-05T11:48:59;3.23;;;2.60;;
46377;SDS011;32083;47.360;9.650;2022-07-05T11:51:26;3.40;;;2.20;;
46377;SDS011;32083;47.360;9.650;2022-07-05T11:53:52;4.20;;;2.20;;
46377;SDS011;32083;47.360;9.650;2022-07-05T11:56:18;3.37;;;2.13;;
46377;SDS011;32083;47.360;9.650;2022-07-05T11:58:44;4.82;;;2.25;;
46377;SDS011;32083;47.360;9.650;2022-07-05T12:01:10;3.20;;;2.00;;
46377;SDS011;32083;47.360;9.650;2022-07-05T12:03:36;2.80;;;2.13;;
46377;SDS011;32083;47.360;9.650;2022-07-05T12:06:13;3.33;;;2.03;;
46377;SDS011;32083;47.360;9.650;2022-07-05T12:08:40;2.58;;;1.80;;
46377;SDS011;32083;47.360;9.650;2022-07-05T12:11:09;2.08;;;1.88;;
46377;SDS011;32083;47.360;9.650;2022-07-05T12:13:55;3.90;;;1.80;;
46377;SDS011;32083;47.360;9.650;2022-07-05T12:16:21;2.47;;;1.60;;
46377;SDS011;32083;47.360;9.650;2022-07-05T12:18:52;2.15;;;1.70;;
46377;SDS011;32083;47.360;9.650;2022-07-05T12:21:26;2.93;;;1.50;;
46377;SDS011;32083;47.360;9.650;2022-07-05T12:23:52;2.87;;;1.77;;
46377;SDS011;32083;47.360;9.650;2022-07-05T12:26:20;3.05;;;1.55;;
46377;SDS011;32083;47.360;9.650;2022-07-05T12:28:47;5.33;;;1.90;;
46377;SDS011;32083;47.360;9.650;2022-07-05T12:31:17;3.22;;;2.10;;
46377;SDS011;32083;47.360;9.650;2022-07-05T12:33:43;3.83;;;1.55;;
46377;SDS011;32083;47.360;9.650;2022-07-05T12:36:13;2.58;;;2.03;;
46377;SDS011;32083;47.360;9.650;2022-07-05T12:38:40;4.25;;;1.63;;
46377;SDS011;32083;47.360;9.650;2022-07-05T12:41:07;2.60;;;1.60;;
46377;SDS011;32083;47.360;9.650;2022-07-05T12:43:47;3.28;;;1.90;;
46377;SDS011;32083;47.360;9.650;2022-07-05T12:46:18;2.90;;;1.67;;
46377;SDS011;32083;47.360;9.650;2022-07-05T12:48:50;3.08;;;1.63;;
46377;SDS011;32083;47.360;9.650;2022-07-05T12:51:30;3.50;;;1.50;;
46377;SDS011;32083;47.360;9.650;2022-07-05T12:54:17;2.37;;;1.50;;
46377;SDS011;32083;47.360;9.650;2022-07-05T12:57:06;2.83;;;1.63;;
46377;SDS011;32083;47.360;9.650;2022-07-05T12:59:59;2.93;;;2.07;;
46377;SDS011;32083;47.360;9.650;2022-07-05T13:02:33;3.10;;;2.00;;
46377;SDS011;32083;47.360;9.650;2022-07-05T13:05:04;4.18;;;2.20;;
46377;SDS011;32083;47.360;9.650;2022-07-05T13:07:30;2.25;;;1.70;;
46377;SDS011;32083;47.360;9.650;2022-07-05T13:10:12;2.50;;;1.60;;
46377;SDS011;32083;47.360;9.650;2022-07-05T13:12:39;3.20;;;1.63;;
46377;SDS011;32083;47.360;9.650;2022-07-05T13:15:05;3.75;;;1.92;;
46377;SDS011;32083;47.360;9.650;2022-07-05T13:17:32;2.75;;;1.50;;
46377;SDS011;32083;47.360;9.650;2022-07-05T13:19:59;3.08;;;1.55;;
46377;SDS011;32083;47.360;9.650;2022-07-05T13:22:34;3.88;;;1.60;;
46377;SDS011;32083;47.360;9.650;2022-07-05T13:25:01;1.63;;;1.53;;
46377;SDS011;32083;47.360;9.650;2022-07-05T13:27:29;2.50;;;1.60;;
46377;SDS011;32083;47.360;9.650;2022-07-05T13:29:55;3.05;;;2.03;;
46377;SDS011;32083;47.360;9.650;2022-07-05T13:32:21;5.43;;;1.73;;
46377;SDS011;32083;47.360;9.650;2022-07-05T13:34:49;3.60;;;1.48;;
46377;SDS011;32083;47.360;9.650;2022-07-05T13:37:34;2.22;;;1.60;;
46377;SDS011;32083;47.360;9.650;2022-07-05T16:05:31;2.33;;;1.10;;
46377;SDS011;32083;47.360;9.650;2022-07-05T16:07:57;2.90;;;1.50;;
46377;SDS011;32083;47.360;9.650;2022-07-05T16:10:23;4.93;;;1.50;;
46377;SDS011;32083;47.360;9.650;2022-07-05T16:12:52;2.65;;;1.20;;
46377;SDS011;32083;47.360;9.650;2022-07-05T16:26:34;3.17;;;1.42;;
46377;SDS011;32083;47.360;9.650;2022-07-05T16:29:02;1.60;;;1.00;;
46377;SDS011;32083;47.360;9.650;2022-07-05T16:31:28;2.53;;;1.20;;
46377;SDS011;32083;47.360;9.650;2022-07-05T16:33:56;1.80;;;1.10;;
46377;SDS011;32083;47.360;9.650;2022-07-05T18:25:14;3.55;;;1.60;;
46377;SDS011;32083;47.360;9.650;2022-07-05T18:27:41;2.45;;;1.40;;
46377;SDS011;32083;47.360;9.650;2022-07-05T18:30:10;2.83;;;1.42;;
46377;SDS011;32083;47.360;9.650;2022-07-05T18:32:37;2.67;;;1.30;;
46377;SDS011;32083;47.360;9.650;2022-07-05T18:35:05;2.65;;;1.10;;
46377;SDS011;32083;47.360;9.650;2022-07-05T18:37:36;2.50;;;1.50;;
46377;SDS011;32083;47.360;9.650;2022-07-05T18:40:04;2.20;;;1.60;;
46377;SDS011;32083;47.360;9.650;2022-07-05T18:42:30;3.30;;;1.60;;
46377;SDS011;32083;47.360;9.650;2022-07-05T18:44:57;2.33;;;1.33;;
46377;SDS011;32083;47.360;9.650;2022-07-05T18:47:23;2.60;;;1.40;;
46377;SDS011;32083;47.360;9.650;2022-07-05T18:49:49;4.18;;;1.85;;
46377;SDS011;32083;47.360;9.650;2022-07-05T18:52:16;2.10;;;1.27;;
46377;SDS011;32083;47.360;9.650;2022-07-05T18:54:43;2.63;;;1.40;;
46377;SDS011;32083;47.360;9.650;2022-07-05T18:57:09;3.30;;;2.20;;
46377;SDS011;32083;47.360;9.650;2022-07-05T18:59:35;3.00;;;1.85;;
46377;SDS011;32083;47.360;9.650;2022-07-05T19:02:02;3.20;;;1.70;;
46377;SDS011;32083;47.360;9.650;2022-07-05T19:04:28;5.10;;;1.92;;
46377;SDS011;32083;47.360;9.650;2022-07-05T19:06:55;2.00;;;1.80;;
46377;SDS011;32083;47.360;9.650;2022-07-05T19:09:40;4.37;;;1.67;;
46377;SDS011;32083;47.360;9.650;2022-07-05T19:12:25;2.15;;;1.85;;
46377;SDS011;32083;47.360;9.650;2022-07-05T19:15:09;3.08;;;1.73;;
46377;SDS011;32083;47.360;9.650;2022-07-05T19:17:35;5.60;;;2.33;;
46377;SDS011;32083;47.360;9.650;2022-07-05T19:20:01;5.57;;;2.27;;
46377;SDS011;32083;47.360;9.650;2022-07-05T19:22:28;4.70;;;2.22;;
46377;SDS011;32083;47.360;9.650;2022-07-05T19:24:54;3.08;;;1.80;;
46377;SDS011;32083;47.360;9.650;2022-07-05T19:27:21;3.58;;;2.08;;
46377;SDS011;32083;47.360;9.650;2022-07-05T19:29:48;3.35;;;1.80;;
46377;SDS011;32083;47.360;9.650;2022-07-05T19:32:15;4.57;;;1.95;;
46377;SDS011;32083;47.360;9.650;2022-07-05T19:34:41;3.63;;;1.95;;
46377;SDS011;32083;47.360;9.650;2022-07-05T19:37:07;3.70;;;1.80;;
46377;SDS011;32083;47.360;9.650;2022-07-05T19:39:34;6.03;;;3.35;;
46377;SDS011;32083;47.360;9.650;2022-07-05T19:42:00;3.45;;;2.08;;
46377;SDS011;32083;47.360;9.650;2022-07-05T19:44:29;4.32;;;2.90;;
46377;SDS011;32083;47.360;9.650;2022-07-05T19:46:55;5.85;;;2.42;;
46377;SDS011;32083;47.360;9.650;2022-07-05T19:49:23;2.55;;;1.98;;
46377;SDS011;32083;47.360;9.650;2022-07-05T19:51:48;3.55;;;2.00;;
46377;SDS011;32083;47.360;9.650;2022-07-05T19:54:14;2.38;;;1.88;;
46377;SDS011;32083;47.360;9.650;2022-07-05T19:56:41;4.47;;;2.13;;
46377;SDS011;32083;47.360;9.650;2022-07-05T19:59:07;4.40;;;2.25;;
46377;SDS011;32083;47.360;9.650;2022-07-05T20:01:32;2.47;;;1.92;;
46377;SDS011;32083;47.360;9.650;2022-07-05T20:04:02;3.17;;;1.55;;
46377;SDS011;32083;47.360;9.650;2022-07-05T20:06:33;2.67;;;1.92;;
46377;SDS011;32083;47.360;9.650;2022-07-05T20:08:59;2.63;;;1.60;;
46377;SDS011;32083;47.360;9.650;2022-07-05T20:11:25;3.33;;;1.80;;
46377;SDS011;32083;47.360;9.650;2022-07-05T20:13:52;4.15;;;1.55;;
46377;SDS011;32083;47.360;9.650;2022-07-05T20:16:18;4.18;;;2.20;;
46377;SDS011;32083;47.360;9.650;2022-07-05T20:18:44;2.50;;;1.65;;
46377;SDS011;32083;47.360;9.650;2022-07-05T20:21:10;2.45;;;1.95;;
46377;SDS011;32083;47.360;9.650;2022-07-05T20:23:36;5.20;;;2.20;;
46377;SDS011;32083;47.360;9.650;2022-07-05T20:26:02;3.30;;;2.00;;
46377;SDS011;32083;47.360;9.650;2022-07-05T20:28:28;2.65;;;1.92;;
46377;SDS011;32083;47.360;9.650;2022-07-05T20:30:54;4.63;;;2.30;;
46377;SDS011;32083;47.360;9.650;2022-07-05T20:33:21;4.38;;;2.90;;
46377;SDS011;32083;47.360;9.650;2022-07-05T20:35:48;3.00;;;2.58;;
46377;SDS011;32083;47.360;9.650;2022-07-05T20:38:15;4.10;;;2.83;;
46377;SDS011;32083;47.360;9.650;2022-07-05T20:40:42;5.15;;;2.60;;
46377;SDS011;32083;47.360;9.650;2022-07-05T20:43:08;4.65;;;2.30;;
46377;SDS011;32083;47.360;9.650;2022-07-05T20:45:35;2.80;;;1.90;;
46377;SDS011;32083;47.360;9.650;2022-07-05T20:48:01;5.00;;;2.30;;
46377;SDS011;32083;47.360;9.650;2022-07-05T20:50:27;3.47;;;2.25;;
46377;SDS011;32083;47.360;9.650;2022-07-05T20:52:53;4.10;;;2.55;;
46377;SDS011;32083;47.360;9.650;2022-07-05T20:55:20;4.85;;;2.45;;
46377;SDS011;32083;47.360;9.650;2022-07-05T20:57:47;4.97;;;2.45;;
46377;SDS011;32083;47.360;9.650;2022-07-05T21:00:13;3.10;;;2.50;;
46377;SDS011;32083;47.360;9.650;2022-07-05T21:02:40;2.80;;;2.60;;
46377;SDS011;32083;47.360;9.650;2022-07-05T21:05:06;3.10;;;2.28;;
46377;SDS011;32083;47.360;9.650;2022-07-05T21:07:33;7.45;;;2.85;;
46377;SDS011;32083;47.360;9.650;2022-07-05T21:09:59;3.70;;;2.50;;
46377;SDS011;32083;47.360;9.650;2022-07-05T21:12:25;4.13;;;2.30;;
46377;SDS011;32083;47.360;9.650;2022-07-05T21:14:51;4.15;;;2.63;;
46377;SDS011;32083;47.360;9.650;2022-07-05T21:17:18;4.30;;;2.38;;
46377;SDS011;32083;47.360;9.650;2022-07-05T21:19:44;5.93;;;4.40;;
46377;SDS011;32083;47.360;9.650;2022-07-05T21:22:10;4.25;;;2.90;;
46377;SDS011;32083;47.360;9.650;2022-07-05T21:24:36;4.18;;;2.50;;
46377;SDS011;32083;47.360;9.650;2022-07-05T21:27:04;4.28;;;2.92;;
46377;SDS011;32083;47.360;9.650;2022-07-05T21:29:30;4.53;;;2.97;;
46377;SDS011;32083;47.360;9.650;2022-07-05T21:31:56;6.18;;;2.60;;
46377;SDS011;32083;47.360;9.650;2022-07-05T21:34:23;4.53;;;3.38;;
46377;SDS011;32083;47.360;9.650;2022-07-05T21:36:49;2.90;;;2.58;;
46377;SDS011;32083;47.360;9.650;2022-07-05T21:39:15;2.72;;;2.53;;
46377;SDS011;32083;47.360;9.650;2022-07-05T21:41:43;3.60;;;2.55;;
46377;SDS011;32083;47.360;9.650;2022-07-05T21:44:10;3.55;;;2.83;;
46377;SDS011;32083;47.360;9.650;2022-07-05T21:46:37;3.10;;;2.65;;
46377;SDS011;32083;47.360;9.650;2022-07-05T21:49:03;3.53;;;2.15;;
46377;SDS011;32083;47.360;9.650;2022-07-05T21:51:29;5.40;;;2.63;;
46377;SDS011;32083;47.360;9.650;2022-07-05T21:53:56;3.90;;;2.53;;
46377;SDS011;32083;47.360;9.650;2022-07-05T21:56:22;4.35;;;2.70;;
46377;SDS011;32083;47.360;9.650;2022-07-05T21:58:48;3.60;;;3.05;;
46377;SDS011;32083;47.360;9.650;2022-07-05T22:01:33;4.50;;;3.60;;
46377;SDS011;32083;47.360;9.650;2022-07-05T22:04:17;10.77;;;4.00;;
46377;SDS011;32083;47.360;9.650;2022-07-05T22:07:05;4.15;;;2.95;;
46377;SDS011;32083;47.360;9.650;2022-07-05T22:09:32;4.20;;;3.47;;
46377;SDS011;32083;47.360;9.650;2022-07-05T22:12:02;3.67;;;2.83;;
46377;SDS011;32083;47.360;9.650;2022-07-05T22:14:30;5.50;;;3.20;;
46377;SDS011;32083;47.360;9.650;2022-07-05T22:16:56;3.28;;;2.97;;
46377;SDS011;32083;47.360;9.650;2022-07-05T22:19:22;4.50;;;3.17;;
46377;SDS011;32083;47.360;9.650;2022-07-05T22:21:52;4.13;;;2.88;;
46377;SDS011;32083;47.360;9.650;2022-07-05T22:24:19;2.80;;;2.40;;
46377;SDS011;32083;47.360;9.650;2022-07-05T22:26:47;4.22;;;3.25;;
46377;SDS011;32083;47.360;9.650;2022-07-05T22:29:13;2.90;;;2.70;;
46377;SDS011;32083;47.360;9.650;2022-07-05T22:31:39;3.47;;;3.00;;
46377;SDS011;32083;47.360;9.650;2022-07-05T22:34:05;3.90;;;2.85;;
46377;SDS011;32083;47.360;9.650;2022-07-05T22:36:31;6.03;;;3.35;;
46377;SDS011;32083;47.360;9.650;2022-07-05T22:38:59;4.63;;;3.25;;
46377;SDS011;32083;47.360;9.650;2022-07-05T22:41:26;3.33;;;2.92;;
46377;SDS011;32083;47.360;9.650;2022-07-05T22:43:52;3.92;;;2.78;;
46377;SDS011;32083;47.360;9.650;2022-07-05T22:46:19;5.60;;;3.17;;
46377;SDS011;32083;47.360;9.650;2022-07-05T22:48:45;3.88;;;2.70;;
46377;SDS011;32083;47.360;9.650;2022-07-05T22:51:11;3.38;;;2.50;;
46377;SDS011;32083;47.360;9.650;2022-07-05T22:53:37;3.83;;;1.98;;
46377;SDS011;32083;47.360;9.650;2022-07-05T22:56:04;3.38;;;2.25;;
46377;SDS011;32083;47.360;9.650;2022-07-05T22:58:30;2.60;;;2.40;;
